createdAt,value
2023-05-22T00:01:37.795Z,13.68
2023-05-22T00:04:06.404Z,15.73
2023-05-22T00:06:34.967Z,16.08
2023-05-22T00:09:03.487Z,16.47
2023-05-22T00:11:31.825Z,15.82
2023-05-22T00:14:00.150Z,17.15
2023-05-22T00:16:28.667Z,14.57
2023-05-22T00:19:00.085Z,15.35
2023-05-22T00:21:28.995Z,13.57
2023-05-22T00:23:57.247Z,15.77
2023-05-22T00:26:26.488Z,16.63
2023-05-22T00:28:55.753Z,15.80
2023-05-22T00:31:24.448Z,18.77
2023-05-22T00:33:52.819Z,16.40
2023-05-22T00:36:22.489Z,15.02
2023-05-22T00:38:50.933Z,17.17
2023-05-22T00:41:19.411Z,16.58
2023-05-22T00:43:47.912Z,26.75
2023-05-22T00:46:21.351Z,21.40
2023-05-22T00:48:50.100Z,20.80
2023-05-22T00:51:18.413Z,19.80
2023-05-22T00:53:48.780Z,21.63
2023-05-22T00:56:17.526Z,19.77
2023-05-22T00:58:46.177Z,19.37
2023-05-22T01:01:15.626Z,19.38
2023-05-22T01:03:44.925Z,21.25
2023-05-22T01:06:15.010Z,24.20
2023-05-22T01:08:43.706Z,23.10
2023-05-22T01:11:19.420Z,23.73
2023-05-22T01:13:56.267Z,23.42
2023-05-22T01:16:31.097Z,19.95
2023-05-22T01:19:06.357Z,18.70
2023-05-22T01:21:40.231Z,19.73
2023-05-22T01:24:43.477Z,19.10
2023-05-22T01:27:57.100Z,20.23
2023-05-22T01:30:58.583Z,19.42
2023-05-22T01:33:32.881Z,19.15
2023-05-22T01:36:02.652Z,19.58
2023-05-22T01:38:32.478Z,20.90
2023-05-22T01:41:01.031Z,18.63
2023-05-22T01:43:29.543Z,20.27
2023-05-22T01:45:59.452Z,22.88
2023-05-22T01:48:28.565Z,18.98
2023-05-22T01:51:01.317Z,17.73
2023-05-22T01:53:37.491Z,21.38
2023-05-22T01:56:11.377Z,20.98
2023-05-22T01:58:46.303Z,18.10
2023-05-22T02:01:18.711Z,17.65
2023-05-22T02:03:48.356Z,20.03
2023-05-22T02:06:20.564Z,20.90
2023-05-22T02:08:50.234Z,18.00
2023-05-22T02:11:21.542Z,17.45
2023-05-22T02:13:50.754Z,21.38
2023-05-22T02:16:22.217Z,18.83
2023-05-22T02:18:51.397Z,21.20
2023-05-22T02:21:19.968Z,20.02
2023-05-22T02:23:48.310Z,19.92
2023-05-22T02:26:16.633Z,21.33
2023-05-22T02:28:44.988Z,18.60
2023-05-22T02:31:13.423Z,18.92
2023-05-22T02:33:43.402Z,19.48
2023-05-22T02:36:13.893Z,21.48
2023-05-22T02:38:42.296Z,23.83
2023-05-22T02:41:10.691Z,20.13
2023-05-22T02:43:39.125Z,19.38
2023-05-22T02:46:07.575Z,20.85
2023-05-22T02:48:36.272Z,24.48
2023-05-22T02:51:06.227Z,19.75
2023-05-22T02:53:35.458Z,26.53
2023-05-22T02:56:03.936Z,24.38
2023-05-22T02:58:32.262Z,24.23
2023-05-22T03:01:00.761Z,23.92
2023-05-22T03:03:29.528Z,20.55
2023-05-22T03:05:58.872Z,22.77
2023-05-22T03:08:29.689Z,25.67
2023-05-22T03:10:59.229Z,23.52
2023-05-22T03:13:27.571Z,26.35
2023-05-22T03:15:55.989Z,26.77
2023-05-22T03:18:27.286Z,26.60
2023-05-22T03:20:56.804Z,21.42
2023-05-22T03:23:25.719Z,23.20
2023-05-22T03:25:56.941Z,22.45
2023-05-22T03:28:28.704Z,23.48
2023-05-22T03:30:57.031Z,25.50
2023-05-22T03:33:29.147Z,24.42
2023-05-22T03:35:57.605Z,25.60
2023-05-22T03:38:26.334Z,25.17
2023-05-22T03:40:56.123Z,24.90
2023-05-22T03:43:25.682Z,27.47
2023-05-22T03:45:54.053Z,23.08
2023-05-22T03:48:22.530Z,23.17
2023-05-22T03:50:52.742Z,24.58
2023-05-22T03:53:21.222Z,24.67
2023-05-22T03:55:49.553Z,21.70
2023-05-22T03:58:19.250Z,21.63
2023-05-22T04:00:47.567Z,19.73
2023-05-22T04:03:19.892Z,20.83
2023-05-22T04:05:48.597Z,19.17
2023-05-22T04:08:16.909Z,18.47
2023-05-22T04:10:46.651Z,19.98
2023-05-22T04:13:17.027Z,22.15
2023-05-22T04:15:47.051Z,17.55
2023-05-22T04:18:15.626Z,17.58
2023-05-22T04:20:43.886Z,18.57
2023-05-22T04:23:13.306Z,19.00
2023-05-22T04:25:41.634Z,19.70
2023-05-22T04:28:10.029Z,16.95
2023-05-22T04:30:40.518Z,17.25
2023-05-22T04:33:10.679Z,16.83
2023-05-22T04:35:40.727Z,17.27
2023-05-22T04:38:09.188Z,15.75
2023-05-22T04:40:38.223Z,18.70
2023-05-22T04:43:07.738Z,16.65
2023-05-22T04:45:35.950Z,16.27
2023-05-22T04:48:04.557Z,16.83
2023-05-22T04:50:38.942Z,17.08
2023-05-22T04:53:07.750Z,15.40
2023-05-22T04:55:37.037Z,18.02
2023-05-22T04:58:05.872Z,14.33
2023-05-22T05:00:34.497Z,17.35
2023-05-22T05:03:03.037Z,16.00
2023-05-22T05:05:31.810Z,16.73
2023-05-22T05:08:02.510Z,16.73
2023-05-22T05:10:30.845Z,15.67
2023-05-22T05:12:59.261Z,15.00
2023-05-22T05:15:28.202Z,15.32
2023-05-22T05:17:56.612Z,14.35
2023-05-22T05:20:25.053Z,14.32
2023-05-22T05:22:53.485Z,14.27
2023-05-22T05:25:23.590Z,14.82
2023-05-22T05:27:52.065Z,15.82
2023-05-22T05:30:21.729Z,14.55
2023-05-22T05:33:22.362Z,14.30
2023-05-22T05:36:16.350Z,14.33
2023-05-22T05:38:46.346Z,15.52
2023-05-22T05:41:19.117Z,15.55
2023-05-22T05:43:52.107Z,18.77
2023-05-22T05:46:20.773Z,14.15
2023-05-22T05:48:49.102Z,16.27
2023-05-22T05:51:17.446Z,17.33
2023-05-22T05:53:45.903Z,15.00
2023-05-22T05:56:15.053Z,19.33
2023-05-22T05:58:45.180Z,15.20
2023-05-22T06:01:47.235Z,15.77
2023-05-22T06:04:24.599Z,14.15
2023-05-22T06:06:53.958Z,14.35
2023-05-22T06:09:28.072Z,15.23
2023-05-22T06:12:15.912Z,16.17
2023-05-22T06:14:47.918Z,18.90
2023-05-22T06:17:16.905Z,15.30
2023-05-22T06:19:46.435Z,14.88
2023-05-22T06:22:16.653Z,17.23
2023-05-22T06:24:47.934Z,16.17
2023-05-22T06:27:22.681Z,15.03
2023-05-22T06:29:52.890Z,15.60
2023-05-22T06:32:21.588Z,17.23
2023-05-22T06:34:52.304Z,16.45
2023-05-22T06:37:21.970Z,18.15
2023-05-22T06:39:50.976Z,16.83
2023-05-22T06:42:54.601Z,14.65
2023-05-22T06:45:56.336Z,18.45
2023-05-22T06:48:24.707Z,17.52
2023-05-22T06:51:04.241Z,15.93
2023-05-22T06:53:32.851Z,17.07
2023-05-22T06:56:01.552Z,15.10
2023-05-22T06:58:45.055Z,17.00
2023-05-22T07:01:18.558Z,16.88
2023-05-22T07:04:01.358Z,17.15
2023-05-22T07:06:48.606Z,17.20
2023-05-22T07:09:17.722Z,17.33
2023-05-22T07:11:46.540Z,16.88
2023-05-22T07:14:18.099Z,16.15
2023-05-22T07:16:48.776Z,17.17
2023-05-22T07:19:22.811Z,15.43
2023-05-22T07:21:51.537Z,15.27
2023-05-22T07:24:22.345Z,15.65
2023-05-22T07:26:51.707Z,17.35
2023-05-22T07:29:21.304Z,15.30
2023-05-22T07:31:55.163Z,14.77
2023-05-22T07:34:31.952Z,15.00
2023-05-22T07:37:01.066Z,16.05
2023-05-22T07:39:29.503Z,13.13
2023-05-22T07:41:59.445Z,14.85
2023-05-22T07:44:30.053Z,15.83
2023-05-22T07:46:59.716Z,14.05
2023-05-22T07:49:30.173Z,16.02
2023-05-22T07:51:58.512Z,15.65
2023-05-22T07:54:27.531Z,16.23
2023-05-22T07:56:57.535Z,13.20
2023-05-22T07:59:29.127Z,13.57
2023-05-22T08:02:02.192Z,15.23
2023-05-22T08:04:31.036Z,13.73
2023-05-22T08:06:59.404Z,13.13
2023-05-22T08:09:27.779Z,13.70
2023-05-22T08:11:56.010Z,14.65
2023-05-22T08:14:25.540Z,12.73
2023-05-22T08:16:53.904Z,13.40
2023-05-22T08:19:23.741Z,15.68
2023-05-22T08:21:52.969Z,14.50
2023-05-22T08:24:22.416Z,13.90
2023-05-22T08:26:50.706Z,14.88
2023-05-22T08:29:19.077Z,13.07
2023-05-22T08:31:47.346Z,13.75
2023-05-22T08:34:15.683Z,12.40
2023-05-22T08:36:45.277Z,12.43
2023-05-22T08:39:14.492Z,15.10
2023-05-22T08:41:43.945Z,11.85
2023-05-22T08:44:13.401Z,13.50
2023-05-22T08:46:44.330Z,14.67
2023-05-22T08:49:14.221Z,13.30
2023-05-22T08:51:43.540Z,13.63
2023-05-22T08:54:14.275Z,13.30
2023-05-22T08:56:52.849Z,15.57
2023-05-22T08:59:25.057Z,13.93
2023-05-22T09:01:53.906Z,14.25
2023-05-22T09:04:24.232Z,13.88
2023-05-22T09:06:52.970Z,13.23
2023-05-22T09:09:22.798Z,14.57
2023-05-22T09:11:51.364Z,13.10
2023-05-22T09:14:21.042Z,13.57
2023-05-22T09:16:51.213Z,12.75
2023-05-22T09:19:19.893Z,14.07
2023-05-22T09:21:48.701Z,14.50
2023-05-22T09:24:17.023Z,13.33
2023-05-22T09:26:47.153Z,14.43
2023-05-22T09:29:15.511Z,13.35
2023-05-22T09:31:44.923Z,13.60
2023-05-22T09:34:15.829Z,13.15
2023-05-22T09:36:44.851Z,13.87
2023-05-22T09:39:13.342Z,13.05
2023-05-22T09:41:42.843Z,13.48
2023-05-22T09:44:17.071Z,12.93
2023-05-22T09:46:47.780Z,13.98
2023-05-22T09:49:17.253Z,13.03
2023-05-22T09:51:48.909Z,13.82
2023-05-22T09:54:17.989Z,13.05
2023-05-22T09:56:50.230Z,11.85
2023-05-22T09:59:23.614Z,12.23
2023-05-22T10:01:54.100Z,12.17
2023-05-22T10:04:25.450Z,12.90
2023-05-22T10:06:55.394Z,12.48
2023-05-22T10:09:30.686Z,13.30
2023-05-22T10:12:04.143Z,12.15
2023-05-22T10:14:35.952Z,12.43
2023-05-22T10:17:06.983Z,12.73
2023-05-22T10:19:39.657Z,14.77
2023-05-22T10:22:10.238Z,11.85
2023-05-22T10:24:41.215Z,14.57
2023-05-22T10:27:09.423Z,12.50
2023-05-22T10:29:46.014Z,11.75
2023-05-22T10:32:20.462Z,12.45
2023-05-22T10:35:05.976Z,13.80
2023-05-22T10:37:44.957Z,12.95
2023-05-22T10:40:15.901Z,11.70
2023-05-22T10:45:15.672Z,11.15
2023-05-22T10:47:44.062Z,12.60
2023-05-22T10:50:13.204Z,15.65
2023-05-22T10:52:41.696Z,13.00
2023-05-22T10:55:11.849Z,13.40
2023-05-22T10:57:40.769Z,13.60
2023-05-22T11:00:11.528Z,12.70
2023-05-22T11:02:43.446Z,13.38
2023-05-22T11:05:36.497Z,12.77
2023-05-22T11:08:37.621Z,11.93
2023-05-22T11:11:14.490Z,13.43
2023-05-22T11:13:43.752Z,12.88
2023-05-22T11:16:12.510Z,12.88
2023-05-22T11:18:42.220Z,12.30
2023-05-22T11:21:13.675Z,13.68
2023-05-22T11:23:42.655Z,11.85
2023-05-22T11:26:25.604Z,12.93
2023-05-22T11:28:56.695Z,13.77
2023-05-22T11:31:26.493Z,11.70
2023-05-22T11:33:56.328Z,15.45
2023-05-22T11:36:26.168Z,12.60
2023-05-22T11:38:59.676Z,12.10
2023-05-22T11:41:33.705Z,12.57
2023-05-22T11:44:02.692Z,13.23
2023-05-22T11:46:31.113Z,13.13
2023-05-22T11:49:01.160Z,11.73
2023-05-22T11:51:29.685Z,13.50
2023-05-22T11:53:58.838Z,12.60
2023-05-22T11:56:27.407Z,11.90
2023-05-22T11:58:55.754Z,11.48
2023-05-22T12:01:24.169Z,13.02
2023-05-22T12:03:52.587Z,13.68
2023-05-22T12:06:22.393Z,12.70
2023-05-22T12:08:51.060Z,11.97
2023-05-22T12:11:19.411Z,12.35
2023-05-22T12:13:52.110Z,13.13
2023-05-22T12:16:21.879Z,11.55
2023-05-22T12:18:53.775Z,12.18
2023-05-22T12:21:23.633Z,11.53
2023-05-22T12:23:52.886Z,11.82
2023-05-22T12:26:21.502Z,11.88
2023-05-22T12:28:53.471Z,11.77
2023-05-22T12:31:22.495Z,12.18
2023-05-22T12:33:50.964Z,13.00
2023-05-22T12:36:19.265Z,13.30
2023-05-22T12:38:48.917Z,11.60
2023-05-22T12:41:17.265Z,11.68
2023-05-22T12:43:51.387Z,10.98
2023-05-22T12:46:20.081Z,13.33
2023-05-22T12:48:48.340Z,12.32
2023-05-22T12:51:19.301Z,12.70
2023-05-22T12:53:49.715Z,11.65
2023-05-22T12:56:18.108Z,14.50
2023-05-22T12:58:46.468Z,10.77
2023-05-22T13:01:15.022Z,12.85
2023-05-22T13:03:43.416Z,13.65
2023-05-22T13:06:12.391Z,11.45
2023-05-22T13:08:40.712Z,13.35
2023-05-22T13:11:10.709Z,12.20
2023-05-22T13:13:39.247Z,13.23
2023-05-22T13:16:07.552Z,13.10
2023-05-22T13:18:35.925Z,11.48
2023-05-22T13:21:04.366Z,11.70
2023-05-22T13:23:32.681Z,13.00
2023-05-22T13:26:02.185Z,13.10
2023-05-22T13:28:31.884Z,12.38
2023-05-22T13:31:00.191Z,13.73
2023-05-22T13:33:28.594Z,12.75
2023-05-22T13:35:56.895Z,13.10
2023-05-22T13:38:25.124Z,11.90
2023-05-22T13:40:53.552Z,13.45
2023-05-22T13:43:22.008Z,11.48
2023-05-22T13:45:51.882Z,15.23
2023-05-22T13:48:20.292Z,15.60
2023-05-22T13:50:49.107Z,12.32
2023-05-22T13:53:18.458Z,14.40
2023-05-22T13:55:47.530Z,11.25
2023-05-22T13:58:16.813Z,10.15
2023-05-22T14:00:46.554Z,11.53
2023-05-22T14:03:20.261Z,13.52
2023-05-22T14:05:50.493Z,10.90
2023-05-22T14:08:19.809Z,9.70
2023-05-22T14:10:49.451Z,10.82
2023-05-22T14:13:19.958Z,11.57
2023-05-22T14:15:49.170Z,11.85
2023-05-22T14:18:18.944Z,11.52
2023-05-22T14:20:47.759Z,11.30
2023-05-22T14:23:16.449Z,8.50
2023-05-22T14:25:44.750Z,9.73
2023-05-22T14:28:13.940Z,10.70
2023-05-22T14:30:42.504Z,9.70
2023-05-22T14:33:11.473Z,9.90
2023-05-22T14:35:41.546Z,10.75
2023-05-22T14:38:10.180Z,10.00
2023-05-22T14:40:38.475Z,9.60
2023-05-22T14:43:06.894Z,9.88
2023-05-22T14:45:35.283Z,8.73
2023-05-22T14:48:04.826Z,9.77
2023-05-22T14:50:33.186Z,8.80
2023-05-22T14:53:02.835Z,10.30
2023-05-22T14:55:31.800Z,9.98
2023-05-22T14:58:00.208Z,9.48
2023-05-22T15:00:29.973Z,10.43
2023-05-22T15:02:58.419Z,9.67
2023-05-22T15:05:27.176Z,9.10
2023-05-22T15:07:58.437Z,9.95
2023-05-22T15:10:28.229Z,14.00
2023-05-22T15:12:56.612Z,10.90
2023-05-22T15:15:25.088Z,12.23
2023-05-22T15:17:53.490Z,14.27
2023-05-22T15:20:22.271Z,12.75
2023-05-22T15:22:50.624Z,11.52
2023-05-22T15:25:18.989Z,15.55
2023-05-22T15:27:48.910Z,12.17
2023-05-22T15:30:19.088Z,10.90
2023-05-22T15:32:48.882Z,12.55
2023-05-22T15:35:17.322Z,11.65
2023-05-22T15:37:46.577Z,10.38
2023-05-22T15:40:18.434Z,12.70
2023-05-22T15:42:48.101Z,11.00
2023-05-22T15:45:16.556Z,12.30
2023-05-22T15:47:44.879Z,15.27
2023-05-22T15:50:13.279Z,13.10
2023-05-22T15:52:41.687Z,10.60
2023-05-22T15:55:10.158Z,9.75
2023-05-22T15:57:38.686Z,11.27
2023-05-22T16:00:09.839Z,10.88
2023-05-22T16:02:38.242Z,10.80
2023-05-22T16:05:07.081Z,11.47
2023-05-22T16:07:35.347Z,10.40
2023-05-22T16:10:04.029Z,14.70
2023-05-22T16:12:32.339Z,13.32
2023-05-22T16:15:01.285Z,14.38
2023-05-22T16:17:33.295Z,14.80
2023-05-22T16:20:05.666Z,14.60
2023-05-22T16:22:47.458Z,14.95
2023-05-22T16:25:19.108Z,13.13
2023-05-22T16:27:49.295Z,16.13
2023-05-22T16:30:19.327Z,13.97
2023-05-22T16:32:50.931Z,14.35
2023-05-22T16:35:22.495Z,11.05
2023-05-22T16:37:52.945Z,10.98
2023-05-22T16:40:22.924Z,12.52
2023-05-22T16:42:53.246Z,12.20
2023-05-22T16:45:23.485Z,11.30
2023-05-22T16:47:56.106Z,13.48
2023-05-22T16:50:24.871Z,12.60
2023-05-22T16:52:53.141Z,13.02
2023-05-22T16:55:21.758Z,13.73
2023-05-22T16:57:50.242Z,12.93
2023-05-22T17:00:19.639Z,14.10
2023-05-22T17:02:48.455Z,12.27
2023-05-22T17:05:18.334Z,10.65
2023-05-22T17:07:47.081Z,13.00
2023-05-22T17:10:15.513Z,11.90
2023-05-22T17:12:43.772Z,12.85
2023-05-22T17:15:13.195Z,11.38
2023-05-22T17:17:41.548Z,12.25
2023-05-22T17:20:11.780Z,11.03
2023-05-22T17:22:41.518Z,12.68
2023-05-22T17:25:10.927Z,12.27
2023-05-22T17:27:39.275Z,11.48
2023-05-22T17:30:09.674Z,10.75
2023-05-22T17:32:38.744Z,11.37
2023-05-22T17:35:07.770Z,10.80
2023-05-22T17:37:36.203Z,13.55
2023-05-22T17:40:06.737Z,11.25
2023-05-22T17:42:35.190Z,12.85
2023-05-22T17:45:03.591Z,12.47
2023-05-22T17:47:32.967Z,12.48
2023-05-22T17:50:02.130Z,13.07
2023-05-22T17:52:30.529Z,13.77
2023-05-22T17:54:58.895Z,13.02
2023-05-22T17:57:28.715Z,11.80
2023-05-22T17:59:57.013Z,13.90
2023-05-22T18:02:26.617Z,10.85
2023-05-22T18:04:55.003Z,12.30
2023-05-22T18:07:23.495Z,11.30
2023-05-22T18:09:51.859Z,12.87
2023-05-22T18:14:53.082Z,12.82
2023-05-22T18:17:21.430Z,13.70
2023-05-22T18:19:49.802Z,13.57
2023-05-22T18:22:18.205Z,12.83
2023-05-22T18:24:46.632Z,14.63
2023-05-22T18:27:15.948Z,15.70
2023-05-22T18:29:44.329Z,14.05
2023-05-22T18:32:14.103Z,14.10
2023-05-22T18:34:42.455Z,14.80
2023-05-22T18:37:11.031Z,16.23
2023-05-22T18:39:39.413Z,15.20
2023-05-22T18:42:08.051Z,16.80
2023-05-22T18:44:36.425Z,13.82
2023-05-22T18:47:05.203Z,13.37
2023-05-22T18:49:35.104Z,11.77
2023-05-22T18:52:03.632Z,11.63
2023-05-22T18:54:32.122Z,12.40
2023-05-22T18:57:00.466Z,11.68
2023-05-22T18:59:28.831Z,11.37
2023-05-22T19:01:57.211Z,11.95
2023-05-22T19:04:25.953Z,10.43
2023-05-22T19:06:56.491Z,11.38
2023-05-22T19:09:25.809Z,9.70
2023-05-22T19:11:54.174Z,9.83
2023-05-22T19:14:22.507Z,9.98
2023-05-22T19:16:50.895Z,10.05
2023-05-22T19:19:19.383Z,12.40
2023-05-22T19:21:47.834Z,9.68
2023-05-22T19:24:17.524Z,9.10
2023-05-22T19:26:45.956Z,8.43
2023-05-22T19:29:14.279Z,9.10
2023-05-22T19:31:42.778Z,8.23
2023-05-22T19:34:11.075Z,8.60
2023-05-22T19:36:39.238Z,8.20
2023-05-22T19:39:07.498Z,10.55
2023-05-22T19:41:37.112Z,8.18
2023-05-22T19:44:05.784Z,9.05
2023-05-22T19:46:34.145Z,9.68
2023-05-22T19:49:02.541Z,7.37
2023-05-22T19:51:31.156Z,8.43
2023-05-22T19:53:59.405Z,9.00
2023-05-22T19:56:28.275Z,8.18
2023-05-22T19:58:57.933Z,8.20
2023-05-22T20:01:26.259Z,9.00
2023-05-22T20:03:56.319Z,8.93
2023-05-22T20:06:24.776Z,7.80
2023-05-22T20:08:53.034Z,8.40
2023-05-22T20:11:21.702Z,9.65
2023-05-22T20:13:49.962Z,7.90
2023-05-22T20:16:19.805Z,10.50
2023-05-22T20:18:48.767Z,10.52
2023-05-22T20:21:17.072Z,8.73
2023-05-22T20:23:45.285Z,8.30
2023-05-22T20:26:13.565Z,10.87
2023-05-22T20:28:41.846Z,8.88
2023-05-22T20:31:10.137Z,9.48
2023-05-22T20:33:39.794Z,9.73
2023-05-22T20:36:08.730Z,10.02
2023-05-22T20:38:37.058Z,9.87
2023-05-22T20:41:08.085Z,9.75
2023-05-22T20:43:37.470Z,8.38
2023-05-22T20:46:06.070Z,8.93
2023-05-22T20:48:34.359Z,8.30
2023-05-22T20:51:04.006Z,9.43
2023-05-22T20:53:32.414Z,8.75
2023-05-22T20:56:00.671Z,10.20
2023-05-22T20:58:28.897Z,9.40
2023-05-22T21:00:57.739Z,9.18
2023-05-22T21:03:26.218Z,10.47
2023-05-22T21:05:54.906Z,10.15
2023-05-22T21:08:24.557Z,10.07
2023-05-22T21:10:52.901Z,10.98
2023-05-22T21:13:21.244Z,10.40
2023-05-22T21:15:49.667Z,10.33
2023-05-22T21:18:19.707Z,10.30
2023-05-22T21:20:48.017Z,10.43
2023-05-22T21:23:16.276Z,10.23
2023-05-22T21:25:45.973Z,12.82
2023-05-22T21:28:14.203Z,11.07
2023-05-22T21:30:42.575Z,10.93
2023-05-22T21:33:11.374Z,11.52
2023-05-22T21:35:39.702Z,12.75
2023-05-22T21:38:07.957Z,10.82
2023-05-22T21:40:36.214Z,11.97
2023-05-22T21:43:05.936Z,13.32
2023-05-22T21:45:34.276Z,10.80
2023-05-22T21:48:02.517Z,12.80
2023-05-22T21:50:30.886Z,12.45
2023-05-22T21:52:59.078Z,11.30
2023-05-22T21:55:27.338Z,12.07
2023-05-22T21:57:56.634Z,15.52
2023-05-22T22:00:28.571Z,14.63
2023-05-22T22:02:58.358Z,14.60
2023-05-22T22:05:27.666Z,14.77
2023-05-22T22:07:55.923Z,15.98
2023-05-22T22:10:24.304Z,16.48
2023-05-22T22:12:52.612Z,17.05
2023-05-22T22:15:21.818Z,18.38
2023-05-22T22:17:52.315Z,18.53
2023-05-22T22:20:30.389Z,20.95
2023-05-22T22:23:08.129Z,28.02
2023-05-22T22:25:36.428Z,26.80
2023-05-22T22:28:04.680Z,26.10
2023-05-22T22:30:33.092Z,30.43
2023-05-22T22:33:02.999Z,30.77
2023-05-22T22:35:31.757Z,30.92
2023-05-22T22:38:00.007Z,26.98
2023-05-22T22:40:28.317Z,26.90
2023-05-22T22:42:56.617Z,25.57
2023-05-22T22:45:25.083Z,24.52
2023-05-22T22:47:56.495Z,24.27
2023-05-22T22:50:26.257Z,24.33
2023-05-22T22:52:54.585Z,25.85
2023-05-22T22:55:23.085Z,23.50
2023-05-22T22:57:51.663Z,24.50
2023-05-22T23:00:20.262Z,22.45
2023-05-22T23:02:48.660Z,26.63
2023-05-22T23:05:20.196Z,24.20
2023-05-22T23:07:50.399Z,23.53
2023-05-22T23:10:18.883Z,25.30
2023-05-22T23:12:50.100Z,24.83
2023-05-22T23:15:18.568Z,24.10
2023-05-22T23:17:47.329Z,24.10
2023-05-22T23:20:16.864Z,24.20
2023-05-22T23:22:45.217Z,25.42
2023-05-22T23:25:14.862Z,27.45
2023-05-22T23:27:43.285Z,25.73
2023-05-22T23:30:12.249Z,29.80
2023-05-22T23:32:40.493Z,28.13
2023-05-22T23:35:11.167Z,25.95
2023-05-22T23:42:02.203Z,26.30
2023-05-22T23:44:31.002Z,24.90
2023-05-22T23:46:59.380Z,25.77
2023-05-22T23:49:27.950Z,24.33
2023-05-22T23:51:56.236Z,23.17
2023-05-22T23:54:24.475Z,25.98
2023-05-22T23:56:52.945Z,22.42
2023-05-22T23:59:22.641Z,25.07
